sensor_id;sensor_type;location;lat;lon;timestamp;P1;durP1;ratioP1;P2;durP2;ratioP2
56425;SDS011;42330;43.620;3.856;2022-07-29T00:00:38;3.00;;;0.90;;
56425;SDS011;42330;43.620;3.856;2022-07-29T00:03:03;3.88;;;0.77;;
56425;SDS011;42330;43.620;3.856;2022-07-29T00:05:29;3.22;;;0.80;;
56425;SDS011;42330;43.620;3.856;2022-07-29T00:07:55;2.63;;;0.88;;
56425;SDS011;42330;43.620;3.856;2022-07-29T00:10:21;5.97;;;0.90;;
56425;SDS011;42330;43.620;3.856;2022-07-29T00:12:47;3.10;;;1.13;;
56425;SDS011;42330;43.620;3.856;2022-07-29T00:15:13;3.97;;;1.00;;
56425;SDS011;42330;43.620;3.856;2022-07-29T00:17:38;3.15;;;1.08;;
56425;SDS011;42330;43.620;3.856;2022-07-29T00:20:05;3.97;;;1.00;;
56425;SDS011;42330;43.620;3.856;2022-07-29T00:22:32;2.97;;;0.80;;
56425;SDS011;42330;43.620;3.856;2022-07-29T00:24:57;3.53;;;0.90;;
56425;SDS011;42330;43.620;3.856;2022-07-29T00:27:23;3.63;;;0.90;;
56425;SDS011;42330;43.620;3.856;2022-07-29T00:29:49;3.47;;;1.00;;
56425;SDS011;42330;43.620;3.856;2022-07-29T00:32:14;4.03;;;1.00;;
56425;SDS011;42330;43.620;3.856;2022-07-29T00:34:40;3.55;;;0.77;;
56425;SDS011;42330;43.620;3.856;2022-07-29T00:37:24;4.63;;;0.80;;
56425;SDS011;42330;43.620;3.856;2022-07-29T00:39:50;2.17;;;0.80;;
56425;SDS011;42330;43.620;3.856;2022-07-29T00:42:16;1.95;;;0.80;;
56425;SDS011;42330;43.620;3.856;2022-07-29T00:44:42;2.20;;;0.90;;
56425;SDS011;42330;43.620;3.856;2022-07-29T00:47:08;2.75;;;0.98;;
56425;SDS011;42330;43.620;3.856;2022-07-29T00:49:35;4.18;;;1.00;;
56425;SDS011;42330;43.620;3.856;2022-07-29T00:52:02;3.42;;;0.90;;
56425;SDS011;42330;43.620;3.856;2022-07-29T00:54:32;4.00;;;1.00;;
56425;SDS011;42330;43.620;3.856;2022-07-29T00:56:59;4.55;;;1.05;;
56425;SDS011;42330;43.620;3.856;2022-07-29T00:59:26;2.55;;;0.93;;
56425;SDS011;42330;43.620;3.856;2022-07-29T01:01:52;3.42;;;1.00;;
56425;SDS011;42330;43.620;3.856;2022-07-29T01:04:19;3.42;;;1.05;;
56425;SDS011;42330;43.620;3.856;2022-07-29T01:06:45;2.78;;;1.00;;
56425;SDS011;42330;43.620;3.856;2022-07-29T01:09:12;6.88;;;1.23;;
56425;SDS011;42330;43.620;3.856;2022-07-29T01:11:39;4.25;;;1.05;;
56425;SDS011;42330;43.620;3.856;2022-07-29T01:14:05;2.75;;;1.10;;
56425;SDS011;42330;43.620;3.856;2022-07-29T01:16:35;4.57;;;1.40;;
56425;SDS011;42330;43.620;3.856;2022-07-29T01:27:47;3.58;;;1.00;;
56425;SDS011;42330;43.620;3.856;2022-07-29T01:30:25;3.60;;;1.20;;
56425;SDS011;42330;43.620;3.856;2022-07-29T01:32:54;3.45;;;1.00;;
56425;SDS011;42330;43.620;3.856;2022-07-29T01:35:40;2.85;;;1.02;;
56425;SDS011;42330;43.620;3.856;2022-07-29T01:38:16;6.23;;;1.10;;
56425;SDS011;42330;43.620;3.856;2022-07-29T01:40:58;3.38;;;1.05;;
56425;SDS011;42330;43.620;3.856;2022-07-29T01:43:32;4.32;;;0.85;;
56425;SDS011;42330;43.620;3.856;2022-07-29T01:46:04;4.05;;;1.10;;
56425;SDS011;42330;43.620;3.856;2022-07-29T01:51:12;5.03;;;1.10;;
56425;SDS011;42330;43.620;3.856;2022-07-29T01:56:32;3.80;;;0.95;;
56425;SDS011;42330;43.620;3.856;2022-07-29T01:59:00;4.75;;;1.10;;
56425;SDS011;42330;43.620;3.856;2022-07-29T02:01:28;3.33;;;1.00;;
56425;SDS011;42330;43.620;3.856;2022-07-29T02:03:55;4.28;;;1.02;;
56425;SDS011;42330;43.620;3.856;2022-07-29T02:06:24;4.72;;;1.13;;
56425;SDS011;42330;43.620;3.856;2022-07-29T02:08:52;2.40;;;0.98;;
56425;SDS011;42330;43.620;3.856;2022-07-29T02:11:19;4.53;;;1.20;;
56425;SDS011;42330;43.620;3.856;2022-07-29T02:13:44;3.88;;;1.00;;
56425;SDS011;42330;43.620;3.856;2022-07-29T02:16:12;3.15;;;1.00;;
56425;SDS011;42330;43.620;3.856;2022-07-29T02:18:41;3.20;;;1.10;;
56425;SDS011;42330;43.620;3.856;2022-07-29T02:21:10;3.92;;;1.00;;
56425;SDS011;42330;43.620;3.856;2022-07-29T02:23:37;3.10;;;1.10;;
56425;SDS011;42330;43.620;3.856;2022-07-29T02:26:04;3.90;;;1.00;;
56425;SDS011;42330;43.620;3.856;2022-07-29T02:28:32;4.72;;;0.90;;
56425;SDS011;42330;43.620;3.856;2022-07-29T02:30:59;3.85;;;0.90;;
56425;SDS011;42330;43.620;3.856;2022-07-29T02:33:27;4.68;;;1.00;;
56425;SDS011;42330;43.620;3.856;2022-07-29T02:35:55;1.80;;;0.80;;
56425;SDS011;42330;43.620;3.856;2022-07-29T02:38:23;5.80;;;1.10;;
56425;SDS011;42330;43.620;3.856;2022-07-29T02:41:11;3.80;;;1.08;;
56425;SDS011;42330;43.620;3.856;2022-07-29T02:43:40;3.63;;;1.10;;
56425;SDS011;42330;43.620;3.856;2022-07-29T02:46:10;5.22;;;1.13;;
56425;SDS011;42330;43.620;3.856;2022-07-29T02:48:44;4.15;;;1.13;;
56425;SDS011;42330;43.620;3.856;2022-07-29T02:51:41;4.47;;;1.00;;
56425;SDS011;42330;43.620;3.856;2022-07-29T02:54:10;5.38;;;1.60;;
56425;SDS011;42330;43.620;3.856;2022-07-29T02:56:41;4.60;;;1.30;;
56425;SDS011;42330;43.620;3.856;2022-07-29T02:59:10;4.38;;;1.17;;
56425;SDS011;42330;43.620;3.856;2022-07-29T03:01:39;2.42;;;1.00;;
56425;SDS011;42330;43.620;3.856;2022-07-29T03:04:08;6.53;;;1.10;;
56425;SDS011;42330;43.620;3.856;2022-07-29T03:06:36;4.35;;;1.25;;
56425;SDS011;42330;43.620;3.856;2022-07-29T03:09:03;4.85;;;1.40;;
56425;SDS011;42330;43.620;3.856;2022-07-29T03:11:31;4.30;;;1.50;;
56425;SDS011;42330;43.620;3.856;2022-07-29T03:13:58;5.90;;;1.33;;
56425;SDS011;42330;43.620;3.856;2022-07-29T03:16:24;3.40;;;1.20;;
56425;SDS011;42330;43.620;3.856;2022-07-29T03:18:50;3.35;;;1.30;;
56425;SDS011;42330;43.620;3.856;2022-07-29T03:21:17;3.95;;;1.25;;
56425;SDS011;42330;43.620;3.856;2022-07-29T03:23:43;4.32;;;1.20;;
56425;SDS011;42330;43.620;3.856;2022-07-29T03:26:10;4.63;;;1.20;;
56425;SDS011;42330;43.620;3.856;2022-07-29T03:28:37;7.47;;;1.30;;
56425;SDS011;42330;43.620;3.856;2022-07-29T03:31:02;5.70;;;1.10;;
56425;SDS011;42330;43.620;3.856;2022-07-29T03:33:28;4.53;;;1.23;;
56425;SDS011;42330;43.620;3.856;2022-07-29T03:35:55;2.58;;;1.00;;
56425;SDS011;42330;43.620;3.856;2022-07-29T03:38:21;5.28;;;1.23;;
56425;SDS011;42330;43.620;3.856;2022-07-29T03:41:02;3.75;;;1.13;;
56425;SDS011;42330;43.620;3.856;2022-07-29T03:43:30;3.72;;;1.00;;
56425;SDS011;42330;43.620;3.856;2022-07-29T03:46:00;4.10;;;1.00;;
56425;SDS011;42330;43.620;3.856;2022-07-29T03:48:26;2.85;;;0.88;;
56425;SDS011;42330;43.620;3.856;2022-07-29T03:50:56;4.47;;;1.20;;
56425;SDS011;42330;43.620;3.856;2022-07-29T03:53:21;4.78;;;1.00;;
56425;SDS011;42330;43.620;3.856;2022-07-29T03:55:48;4.15;;;1.15;;
56425;SDS011;42330;43.620;3.856;2022-07-29T03:58:18;3.45;;;1.00;;
56425;SDS011;42330;43.620;3.856;2022-07-29T04:00:44;3.30;;;1.08;;
56425;SDS011;42330;43.620;3.856;2022-07-29T04:03:11;3.80;;;1.17;;
56425;SDS011;42330;43.620;3.856;2022-07-29T04:05:37;3.00;;;0.95;;
56425;SDS011;42330;43.620;3.856;2022-07-29T04:08:03;2.33;;;1.00;;
56425;SDS011;42330;43.620;3.856;2022-07-29T04:10:29;4.30;;;1.15;;
56425;SDS011;42330;43.620;3.856;2022-07-29T04:12:55;1.83;;;0.90;;
56425;SDS011;42330;43.620;3.856;2022-07-29T04:15:20;3.00;;;0.90;;
56425;SDS011;42330;43.620;3.856;2022-07-29T04:17:46;2.78;;;1.00;;
56425;SDS011;42330;43.620;3.856;2022-07-29T04:20:12;5.40;;;0.90;;
56425;SDS011;42330;43.620;3.856;2022-07-29T04:22:38;5.05;;;1.10;;
56425;SDS011;42330;43.620;3.856;2022-07-29T04:25:05;2.80;;;1.00;;
56425;SDS011;42330;43.620;3.856;2022-07-29T04:27:30;6.05;;;1.10;;
56425;SDS011;42330;43.620;3.856;2022-07-29T04:29:56;2.50;;;0.90;;
56425;SDS011;42330;43.620;3.856;2022-07-29T04:32:22;2.95;;;0.93;;
56425;SDS011;42330;43.620;3.856;2022-07-29T04:34:48;2.78;;;0.80;;
56425;SDS011;42330;43.620;3.856;2022-07-29T04:37:14;4.05;;;1.00;;
56425;SDS011;42330;43.620;3.856;2022-07-29T04:39:40;4.28;;;0.95;;
56425;SDS011;42330;43.620;3.856;2022-07-29T04:42:05;4.13;;;1.00;;
56425;SDS011;42330;43.620;3.856;2022-07-29T04:44:31;4.28;;;0.90;;
56425;SDS011;42330;43.620;3.856;2022-07-29T04:46:57;3.30;;;1.00;;
56425;SDS011;42330;43.620;3.856;2022-07-29T04:49:22;3.92;;;0.90;;
56425;SDS011;42330;43.620;3.856;2022-07-29T04:51:48;6.03;;;0.90;;
56425;SDS011;42330;43.620;3.856;2022-07-29T04:54:14;5.63;;;0.90;;
56425;SDS011;42330;43.620;3.856;2022-07-29T04:56:39;4.40;;;0.82;;
56425;SDS011;42330;43.620;3.856;2022-07-29T04:59:06;4.70;;;1.10;;
56425;SDS011;42330;43.620;3.856;2022-07-29T05:01:32;3.25;;;0.95;;
56425;SDS011;42330;43.620;3.856;2022-07-29T05:03:57;5.10;;;0.98;;
56425;SDS011;42330;43.620;3.856;2022-07-29T05:06:23;8.07;;;1.17;;
56425;SDS011;42330;43.620;3.856;2022-07-29T05:08:49;5.13;;;1.20;;
56425;SDS011;42330;43.620;3.856;2022-07-29T05:11:14;4.60;;;1.00;;
56425;SDS011;42330;43.620;3.856;2022-07-29T05:13:40;3.20;;;1.13;;
56425;SDS011;42330;43.620;3.856;2022-07-29T05:16:07;3.63;;;1.00;;
56425;SDS011;42330;43.620;3.856;2022-07-29T05:18:33;9.77;;;1.00;;
56425;SDS011;42330;43.620;3.856;2022-07-29T05:20:59;5.65;;;1.20;;
56425;SDS011;42330;43.620;3.856;2022-07-29T05:23:24;3.63;;;1.20;;
56425;SDS011;42330;43.620;3.856;2022-07-29T05:25:50;8.55;;;1.15;;
56425;SDS011;42330;43.620;3.856;2022-07-29T05:28:16;5.38;;;1.25;;
56425;SDS011;42330;43.620;3.856;2022-07-29T05:30:41;4.32;;;1.10;;
56425;SDS011;42330;43.620;3.856;2022-07-29T05:33:09;7.60;;;1.23;;
56425;SDS011;42330;43.620;3.856;2022-07-29T05:35:35;7.63;;;1.48;;
56425;SDS011;42330;43.620;3.856;2022-07-29T05:38:02;6.10;;;1.50;;
56425;SDS011;42330;43.620;3.856;2022-07-29T05:40:28;7.43;;;1.40;;
56425;SDS011;42330;43.620;3.856;2022-07-29T05:42:54;6.97;;;1.15;;
56425;SDS011;42330;43.620;3.856;2022-07-29T05:45:20;5.20;;;1.10;;
56425;SDS011;42330;43.620;3.856;2022-07-29T05:47:45;4.75;;;1.08;;
56425;SDS011;42330;43.620;3.856;2022-07-29T05:50:11;5.00;;;1.17;;
56425;SDS011;42330;43.620;3.856;2022-07-29T05:52:37;6.72;;;1.30;;
56425;SDS011;42330;43.620;3.856;2022-07-29T05:55:03;5.80;;;1.00;;
56425;SDS011;42330;43.620;3.856;2022-07-29T05:57:30;3.80;;;1.05;;
56425;SDS011;42330;43.620;3.856;2022-07-29T05:59:56;6.68;;;1.20;;
56425;SDS011;42330;43.620;3.856;2022-07-29T06:02:22;4.93;;;1.00;;
56425;SDS011;42330;43.620;3.856;2022-07-29T06:04:48;5.40;;;1.27;;
56425;SDS011;42330;43.620;3.856;2022-07-29T06:07:14;5.65;;;1.05;;
56425;SDS011;42330;43.620;3.856;2022-07-29T06:09:41;4.68;;;1.10;;
56425;SDS011;42330;43.620;3.856;2022-07-29T06:12:07;8.48;;;1.30;;
56425;SDS011;42330;43.620;3.856;2022-07-29T06:14:33;7.43;;;1.42;;
56425;SDS011;42330;43.620;3.856;2022-07-29T06:17:00;9.60;;;1.27;;
56425;SDS011;42330;43.620;3.856;2022-07-29T06:19:25;8.63;;;1.20;;
56425;SDS011;42330;43.620;3.856;2022-07-29T06:21:51;7.63;;;1.40;;
56425;SDS011;42330;43.620;3.856;2022-07-29T06:24:17;6.65;;;1.30;;
56425;SDS011;42330;43.620;3.856;2022-07-29T06:26:42;3.05;;;0.90;;
56425;SDS011;42330;43.620;3.856;2022-07-29T06:29:09;7.85;;;1.38;;
56425;SDS011;42330;43.620;3.856;2022-07-29T06:31:38;9.57;;;1.30;;
56425;SDS011;42330;43.620;3.856;2022-07-29T06:34:04;6.45;;;1.67;;
56425;SDS011;42330;43.620;3.856;2022-07-29T06:36:29;4.43;;;1.15;;
56425;SDS011;42330;43.620;3.856;2022-07-29T06:38:55;8.38;;;1.45;;
56425;SDS011;42330;43.620;3.856;2022-07-29T06:41:21;4.40;;;1.05;;
56425;SDS011;42330;43.620;3.856;2022-07-29T06:43:47;4.63;;;1.10;;
56425;SDS011;42330;43.620;3.856;2022-07-29T06:46:14;10.05;;;1.20;;
56425;SDS011;42330;43.620;3.856;2022-07-29T06:48:42;10.85;;;1.95;;
56425;SDS011;42330;43.620;3.856;2022-07-29T06:51:09;15.48;;;1.70;;
56425;SDS011;42330;43.620;3.856;2022-07-29T06:53:35;8.52;;;1.45;;
56425;SDS011;42330;43.620;3.856;2022-07-29T06:56:01;8.30;;;1.40;;
56425;SDS011;42330;43.620;3.856;2022-07-29T06:58:28;7.75;;;1.48;;
56425;SDS011;42330;43.620;3.856;2022-07-29T07:00:56;12.23;;;1.65;;
56425;SDS011;42330;43.620;3.856;2022-07-29T07:03:26;9.13;;;1.50;;
56425;SDS011;42330;43.620;3.856;2022-07-29T07:05:52;7.07;;;1.33;;
56425;SDS011;42330;43.620;3.856;2022-07-29T07:08:18;11.27;;;1.70;;
56425;SDS011;42330;43.620;3.856;2022-07-29T07:10:45;10.25;;;1.63;;
56425;SDS011;42330;43.620;3.856;2022-07-29T07:13:11;14.55;;;1.63;;
56425;SDS011;42330;43.620;3.856;2022-07-29T07:15:37;8.05;;;1.70;;
56425;SDS011;42330;43.620;3.856;2022-07-29T07:18:03;10.93;;;1.35;;
56425;SDS011;42330;43.620;3.856;2022-07-29T07:20:30;6.55;;;1.42;;
56425;SDS011;42330;43.620;3.856;2022-07-29T07:22:56;12.65;;;1.30;;
56425;SDS011;42330;43.620;3.856;2022-07-29T07:25:22;6.97;;;1.30;;
56425;SDS011;42330;43.620;3.856;2022-07-29T07:27:48;6.40;;;1.50;;
56425;SDS011;42330;43.620;3.856;2022-07-29T07:30:13;13.55;;;2.13;;
56425;SDS011;42330;43.620;3.856;2022-07-29T07:32:40;8.20;;;2.00;;
56425;SDS011;42330;43.620;3.856;2022-07-29T07:35:06;8.63;;;1.55;;
56425;SDS011;42330;43.620;3.856;2022-07-29T07:37:33;12.55;;;1.83;;
56425;SDS011;42330;43.620;3.856;2022-07-29T07:39:59;17.90;;;2.15;;
56425;SDS011;42330;43.620;3.856;2022-07-29T07:42:25;18.33;;;2.15;;
56425;SDS011;42330;43.620;3.856;2022-07-29T07:44:51;9.98;;;2.05;;
56425;SDS011;42330;43.620;3.856;2022-07-29T07:47:17;15.63;;;2.33;;
56425;SDS011;42330;43.620;3.856;2022-07-29T07:49:44;14.80;;;2.25;;
56425;SDS011;42330;43.620;3.856;2022-07-29T07:52:15;11.85;;;2.22;;
56425;SDS011;42330;43.620;3.856;2022-07-29T07:54:41;22.65;;;2.30;;
56425;SDS011;42330;43.620;3.856;2022-07-29T07:57:08;15.68;;;2.30;;
56425;SDS011;42330;43.620;3.856;2022-07-29T07:59:33;12.40;;;2.05;;
56425;SDS011;42330;43.620;3.856;2022-07-29T08:01:59;14.13;;;2.30;;
56425;SDS011;42330;43.620;3.856;2022-07-29T08:04:26;20.95;;;2.50;;
56425;SDS011;42330;43.620;3.856;2022-07-29T08:06:52;11.63;;;2.13;;
56425;SDS011;42330;43.620;3.856;2022-07-29T08:09:19;12.27;;;1.90;;
56425;SDS011;42330;43.620;3.856;2022-07-29T08:11:46;10.15;;;2.00;;
56425;SDS011;42330;43.620;3.856;2022-07-29T08:14:11;12.38;;;1.60;;
56425;SDS011;42330;43.620;3.856;2022-07-29T08:16:38;6.82;;;1.52;;
56425;SDS011;42330;43.620;3.856;2022-07-29T08:19:05;13.77;;;1.92;;
56425;SDS011;42330;43.620;3.856;2022-07-29T08:21:31;6.43;;;1.63;;
56425;SDS011;42330;43.620;3.856;2022-07-29T08:23:56;9.60;;;1.70;;
56425;SDS011;42330;43.620;3.856;2022-07-29T08:26:41;8.25;;;1.80;;
56425;SDS011;42330;43.620;3.856;2022-07-29T08:29:07;6.50;;;1.70;;
56425;SDS011;42330;43.620;3.856;2022-07-29T08:31:33;7.63;;;1.60;;
56425;SDS011;42330;43.620;3.856;2022-07-29T08:33:59;7.30;;;1.42;;
56425;SDS011;42330;43.620;3.856;2022-07-29T08:36:25;5.32;;;1.40;;
56425;SDS011;42330;43.620;3.856;2022-07-29T08:38:51;7.22;;;1.65;;
56425;SDS011;42330;43.620;3.856;2022-07-29T08:41:20;10.65;;;1.50;;
56425;SDS011;42330;43.620;3.856;2022-07-29T08:43:47;7.40;;;1.50;;
56425;SDS011;42330;43.620;3.856;2022-07-29T08:46:14;97.85;;;4.75;;
56425;SDS011;42330;43.620;3.856;2022-07-29T08:48:40;41.17;;;2.40;;
56425;SDS011;42330;43.620;3.856;2022-07-29T08:51:07;11.18;;;1.63;;
56425;SDS011;42330;43.620;3.856;2022-07-29T08:53:33;5.78;;;1.45;;
56425;SDS011;42330;43.620;3.856;2022-07-29T08:55:59;8.45;;;1.70;;
56425;SDS011;42330;43.620;3.856;2022-07-29T08:58:26;6.88;;;1.70;;
56425;SDS011;42330;43.620;3.856;2022-07-29T09:00:56;20.20;;;1.90;;
56425;SDS011;42330;43.620;3.856;2022-07-29T09:03:23;13.85;;;1.50;;
56425;SDS011;42330;43.620;3.856;2022-07-29T09:05:52;7.18;;;1.50;;
56425;SDS011;42330;43.620;3.856;2022-07-29T09:08:18;12.07;;;1.65;;
56425;SDS011;42330;43.620;3.856;2022-07-29T09:10:45;8.10;;;1.38;;
56425;SDS011;42330;43.620;3.856;2022-07-29T09:13:10;6.65;;;1.38;;
56425;SDS011;42330;43.620;3.856;2022-07-29T09:15:36;5.00;;;1.38;;
56425;SDS011;42330;43.620;3.856;2022-07-29T09:18:02;4.07;;;1.10;;
56425;SDS011;42330;43.620;3.856;2022-07-29T09:20:28;8.43;;;1.20;;
56425;SDS011;42330;43.620;3.856;2022-07-29T09:23:12;5.10;;;1.20;;
56425;SDS011;42330;43.620;3.856;2022-07-29T09:25:39;7.85;;;1.48;;
56425;SDS011;42330;43.620;3.856;2022-07-29T09:28:24;6.45;;;1.10;;
56425;SDS011;42330;43.620;3.856;2022-07-29T09:30:53;7.25;;;1.50;;
56425;SDS011;42330;43.620;3.856;2022-07-29T09:33:21;6.85;;;1.50;;
56425;SDS011;42330;43.620;3.856;2022-07-29T09:36:02;11.05;;;1.80;;
56425;SDS011;42330;43.620;3.856;2022-07-29T09:38:30;4.63;;;1.50;;
56425;SDS011;42330;43.620;3.856;2022-07-29T09:40:57;7.75;;;1.73;;
56425;SDS011;42330;43.620;3.856;2022-07-29T09:43:23;14.13;;;2.10;;
56425;SDS011;42330;43.620;3.856;2022-07-29T09:45:49;10.80;;;2.63;;
56425;SDS011;42330;43.620;3.856;2022-07-29T09:50:44;11.77;;;2.20;;
56425;SDS011;42330;43.620;3.856;2022-07-29T09:53:12;12.38;;;2.22;;
56425;SDS011;42330;43.620;3.856;2022-07-29T09:55:54;10.15;;;2.00;;
56425;SDS011;42330;43.620;3.856;2022-07-29T09:58:20;10.38;;;1.92;;
56425;SDS011;42330;43.620;3.856;2022-07-29T10:00:47;11.95;;;1.90;;
56425;SDS011;42330;43.620;3.856;2022-07-29T10:03:15;10.10;;;2.10;;
56425;SDS011;42330;43.620;3.856;2022-07-29T10:05:41;11.52;;;2.22;;
56425;SDS011;42330;43.620;3.856;2022-07-29T10:08:08;15.82;;;2.47;;
56425;SDS011;42330;43.620;3.856;2022-07-29T10:10:36;12.05;;;2.38;;
56425;SDS011;42330;43.620;3.856;2022-07-29T10:13:05;12.38;;;2.05;;
56425;SDS011;42330;43.620;3.856;2022-07-29T10:15:39;15.00;;;2.10;;
56425;SDS011;42330;43.620;3.856;2022-07-29T10:18:08;10.05;;;2.38;;
56425;SDS011;42330;43.620;3.856;2022-07-29T10:20:35;5.88;;;2.00;;
56425;SDS011;42330;43.620;3.856;2022-07-29T10:23:01;5.80;;;1.98;;
56425;SDS011;42330;43.620;3.856;2022-07-29T10:25:27;6.40;;;2.00;;
56425;SDS011;42330;43.620;3.856;2022-07-29T10:27:53;10.07;;;1.83;;
56425;SDS011;42330;43.620;3.856;2022-07-29T10:30:20;9.35;;;2.08;;
56425;SDS011;42330;43.620;3.856;2022-07-29T10:44:27;5.00;;;1.77;;
56425;SDS011;42330;43.620;3.856;2022-07-29T10:46:53;3.70;;;1.48;;
56425;SDS011;42330;43.620;3.856;2022-07-29T10:57:11;4.70;;;1.40;;
56425;SDS011;42330;43.620;3.856;2022-07-29T10:59:38;4.28;;;1.42;;
56425;SDS011;42330;43.620;3.856;2022-07-29T11:02:40;6.05;;;1.40;;
56425;SDS011;42330;43.620;3.856;2022-07-29T11:05:08;7.55;;;1.70;;
56425;SDS011;42330;43.620;3.856;2022-07-29T11:07:36;6.53;;;1.30;;
56425;SDS011;42330;43.620;3.856;2022-07-29T11:22:56;5.38;;;1.10;;
56425;SDS011;42330;43.620;3.856;2022-07-29T11:25:22;4.28;;;1.60;;
56425;SDS011;42330;43.620;3.856;2022-07-29T11:27:48;2.03;;;1.05;;
56425;SDS011;42330;43.620;3.856;2022-07-29T11:30:17;3.25;;;1.17;;
56425;SDS011;42330;43.620;3.856;2022-07-29T11:32:43;3.53;;;1.27;;
56425;SDS011;42330;43.620;3.856;2022-07-29T11:35:10;2.83;;;1.20;;
56425;SDS011;42330;43.620;3.856;2022-07-29T11:37:40;4.38;;;1.23;;
56425;SDS011;42330;43.620;3.856;2022-07-29T11:45:09;3.40;;;1.00;;
56425;SDS011;42330;43.620;3.856;2022-07-29T11:47:41;3.90;;;1.20;;
56425;SDS011;42330;43.620;3.856;2022-07-29T11:50:13;1.70;;;1.00;;
56425;SDS011;42330;43.620;3.856;2022-07-29T11:52:42;4.20;;;1.15;;
56425;SDS011;42330;43.620;3.856;2022-07-29T11:55:13;3.17;;;1.00;;
56425;SDS011;42330;43.620;3.856;2022-07-29T11:57:51;4.07;;;1.08;;
56425;SDS011;42330;43.620;3.856;2022-07-29T12:02:49;2.75;;;1.00;;
56425;SDS011;42330;43.620;3.856;2022-07-29T12:05:16;3.42;;;1.30;;
56425;SDS011;42330;43.620;3.856;2022-07-29T12:07:42;3.20;;;1.25;;
56425;SDS011;42330;43.620;3.856;2022-07-29T12:10:08;3.42;;;1.02;;
56425;SDS011;42330;43.620;3.856;2022-07-29T12:12:34;3.58;;;1.50;;
56425;SDS011;42330;43.620;3.856;2022-07-29T12:15:10;3.95;;;1.35;;
56425;SDS011;42330;43.620;3.856;2022-07-29T12:17:42;6.65;;;1.50;;
56425;SDS011;42330;43.620;3.856;2022-07-29T12:20:08;3.78;;;1.30;;
56425;SDS011;42330;43.620;3.856;2022-07-29T12:22:36;5.55;;;1.60;;
56425;SDS011;42330;43.620;3.856;2022-07-29T12:25:06;6.57;;;1.42;;
56425;SDS011;42330;43.620;3.856;2022-07-29T12:27:34;3.70;;;1.50;;
56425;SDS011;42330;43.620;3.856;2022-07-29T12:30:01;3.95;;;1.23;;
56425;SDS011;42330;43.620;3.856;2022-07-29T12:32:34;5.50;;;1.20;;
56425;SDS011;42330;43.620;3.856;2022-07-29T12:35:02;5.60;;;1.48;;
56425;SDS011;42330;43.620;3.856;2022-07-29T12:37:30;2.75;;;1.27;;
56425;SDS011;42330;43.620;3.856;2022-07-29T12:39:57;5.95;;;1.45;;
56425;SDS011;42330;43.620;3.856;2022-07-29T12:42:23;3.10;;;1.20;;
56425;SDS011;42330;43.620;3.856;2022-07-29T12:44:49;2.92;;;1.30;;
56425;SDS011;42330;43.620;3.856;2022-07-29T12:47:16;5.75;;;1.10;;
56425;SDS011;42330;43.620;3.856;2022-07-29T12:49:43;4.88;;;1.23;;
56425;SDS011;42330;43.620;3.856;2022-07-29T12:54:51;3.08;;;1.10;;
56425;SDS011;42330;43.620;3.856;2022-07-29T12:57:17;2.50;;;1.10;;
56425;SDS011;42330;43.620;3.856;2022-07-29T12:59:43;4.55;;;1.25;;
56425;SDS011;42330;43.620;3.856;2022-07-29T13:02:20;3.95;;;1.38;;
56425;SDS011;42330;43.620;3.856;2022-07-29T13:04:58;2.47;;;1.20;;
56425;SDS011;42330;43.620;3.856;2022-07-29T13:07:25;4.03;;;1.33;;
56425;SDS011;42330;43.620;3.856;2022-07-29T13:09:53;4.90;;;1.50;;
56425;SDS011;42330;43.620;3.856;2022-07-29T13:12:20;4.78;;;1.45;;
56425;SDS011;42330;43.620;3.856;2022-07-29T13:14:49;4.95;;;1.50;;
56425;SDS011;42330;43.620;3.856;2022-07-29T13:17:24;5.63;;;1.90;;
56425;SDS011;42330;43.620;3.856;2022-07-29T13:19:53;5.80;;;1.67;;
56425;SDS011;42330;43.620;3.856;2022-07-29T13:22:37;7.05;;;1.50;;
56425;SDS011;42330;43.620;3.856;2022-07-29T13:25:03;4.53;;;1.23;;
56425;SDS011;42330;43.620;3.856;2022-07-29T13:27:32;3.47;;;1.50;;
56425;SDS011;42330;43.620;3.856;2022-07-29T13:29:59;4.60;;;1.50;;
56425;SDS011;42330;43.620;3.856;2022-07-29T13:32:27;8.43;;;1.40;;
56425;SDS011;42330;43.620;3.856;2022-07-29T13:34:54;5.30;;;1.40;;
56425;SDS011;42330;43.620;3.856;2022-07-29T13:37:21;4.05;;;1.20;;
56425;SDS011;42330;43.620;3.856;2022-07-29T13:39:46;6.10;;;1.27;;
56425;SDS011;42330;43.620;3.856;2022-07-29T13:42:15;2.95;;;1.30;;
56425;SDS011;42330;43.620;3.856;2022-07-29T13:44:40;3.97;;;1.27;;
56425;SDS011;42330;43.620;3.856;2022-07-29T13:47:07;2.78;;;1.13;;
56425;SDS011;42330;43.620;3.856;2022-07-29T13:49:33;19.45;;;2.22;;
56425;SDS011;42330;43.620;3.856;2022-07-29T13:52:00;4.55;;;1.30;;
56425;SDS011;42330;43.620;3.856;2022-07-29T13:54:26;3.35;;;1.20;;
56425;SDS011;42330;43.620;3.856;2022-07-29T13:56:51;4.13;;;1.40;;
56425;SDS011;42330;43.620;3.856;2022-07-29T13:59:17;3.75;;;1.40;;
56425;SDS011;42330;43.620;3.856;2022-07-29T14:01:43;3.75;;;1.30;;
56425;SDS011;42330;43.620;3.856;2022-07-29T14:04:09;5.15;;;1.63;;
56425;SDS011;42330;43.620;3.856;2022-07-29T14:06:35;3.58;;;1.67;;
56425;SDS011;42330;43.620;3.856;2022-07-29T14:09:02;8.15;;;1.48;;
56425;SDS011;42330;43.620;3.856;2022-07-29T14:11:31;3.85;;;1.42;;
56425;SDS011;42330;43.620;3.856;2022-07-29T14:13:57;4.35;;;1.30;;
56425;SDS011;42330;43.620;3.856;2022-07-29T14:16:23;4.13;;;1.60;;
56425;SDS011;42330;43.620;3.856;2022-07-29T14:18:49;4.43;;;1.40;;
56425;SDS011;42330;43.620;3.856;2022-07-29T14:21:14;3.92;;;1.45;;
56425;SDS011;42330;43.620;3.856;2022-07-29T14:23:40;4.07;;;1.23;;
56425;SDS011;42330;43.620;3.856;2022-07-29T14:26:06;2.85;;;1.40;;
56425;SDS011;42330;43.620;3.856;2022-07-29T14:28:31;5.15;;;1.30;;
56425;SDS011;42330;43.620;3.856;2022-07-29T14:30:57;5.57;;;1.40;;
56425;SDS011;42330;43.620;3.856;2022-07-29T14:33:23;3.70;;;1.42;;
56425;SDS011;42330;43.620;3.856;2022-07-29T14:35:48;5.85;;;1.40;;
56425;SDS011;42330;43.620;3.856;2022-07-29T14:38:14;6.80;;;1.20;;
56425;SDS011;42330;43.620;3.856;2022-07-29T14:40:40;3.38;;;1.50;;
56425;SDS011;42330;43.620;3.856;2022-07-29T14:43:05;3.63;;;1.33;;
56425;SDS011;42330;43.620;3.856;2022-07-29T14:45:31;4.32;;;1.20;;
56425;SDS011;42330;43.620;3.856;2022-07-29T14:47:57;2.70;;;1.20;;
56425;SDS011;42330;43.620;3.856;2022-07-29T14:50:23;4.00;;;1.17;;
56425;SDS011;42330;43.620;3.856;2022-07-29T14:52:51;3.65;;;1.20;;
56425;SDS011;42330;43.620;3.856;2022-07-29T14:55:17;5.68;;;1.17;;
56425;SDS011;42330;43.620;3.856;2022-07-29T14:57:42;2.38;;;1.27;;
56425;SDS011;42330;43.620;3.856;2022-07-29T15:00:08;1.73;;;1.17;;
56425;SDS011;42330;43.620;3.856;2022-07-29T15:02:35;5.68;;;1.27;;
56425;SDS011;42330;43.620;3.856;2022-07-29T15:05:01;5.07;;;1.25;;
56425;SDS011;42330;43.620;3.856;2022-07-29T15:07:27;4.22;;;1.40;;
56425;SDS011;42330;43.620;3.856;2022-07-29T15:09:53;3.42;;;1.13;;
56425;SDS011;42330;43.620;3.856;2022-07-29T15:12:18;5.57;;;1.17;;
56425;SDS011;42330;43.620;3.856;2022-07-29T15:14:44;6.25;;;1.20;;
56425;SDS011;42330;43.620;3.856;2022-07-29T15:17:10;4.32;;;1.25;;
56425;SDS011;42330;43.620;3.856;2022-07-29T15:19:35;4.95;;;1.40;;
56425;SDS011;42330;43.620;3.856;2022-07-29T15:22:01;4.43;;;1.17;;
56425;SDS011;42330;43.620;3.856;2022-07-29T15:24:27;4.72;;;1.10;;
56425;SDS011;42330;43.620;3.856;2022-07-29T15:26:53;3.33;;;1.10;;
56425;SDS011;42330;43.620;3.856;2022-07-29T15:29:18;3.45;;;1.00;;
56425;SDS011;42330;43.620;3.856;2022-07-29T15:31:44;3.78;;;1.10;;
56425;SDS011;42330;43.620;3.856;2022-07-29T15:34:10;9.27;;;1.17;;
56425;SDS011;42330;43.620;3.856;2022-07-29T15:36:36;2.30;;;1.00;;
56425;SDS011;42330;43.620;3.856;2022-07-29T15:39:01;3.58;;;1.20;;
56425;SDS011;42330;43.620;3.856;2022-07-29T15:41:27;4.68;;;1.00;;
56425;SDS011;42330;43.620;3.856;2022-07-29T15:43:53;6.03;;;0.98;;
56425;SDS011;42330;43.620;3.856;2022-07-29T15:46:19;2.53;;;0.93;;